Terminal Aerodrome Forecast
Issued by NWS Twin Cities, MN

Home | Current Version | Previous Version | Text Only | Print | Product List | Glossary Off
Versions: 1 2 3 4 5 6 7 8 9 10 11 12 13 14 15 16 17 18 19 20 21

000
FTUS43 KMPX 260500
TAFEAU
TAF
KEAU 260533Z 2606/2706 VRB03KT P6SM OVC050
     FM262300 32007KT 4SM -SN OVC025
     FM270200 32009KT P6SM OVC025=

USA.gov is the U.S. government's official web portal to all federal, state and local government web resources and services.